createdAt,value
2023-03-16T00:00:43.670Z,83.79
2023-03-16T00:03:12.176Z,83.68
2023-03-16T00:05:40.488Z,83.54
2023-03-16T00:08:09.388Z,83.94
2023-03-16T00:10:37.453Z,83.92
2023-03-16T00:13:25.368Z,83.45
2023-03-16T00:15:55.322Z,83.73
2023-03-16T00:18:27.313Z,84.06
2023-03-16T00:21:02.499Z,84.13
2023-03-16T00:23:35.931Z,84.09
2023-03-16T00:26:06.197Z,84.17
2023-03-16T00:28:37.780Z,84.29
2023-03-16T00:31:12.214Z,84.45
2023-03-16T00:33:43.036Z,84.29
2023-03-16T00:36:11.826Z,84.43
2023-03-16T00:38:49.303Z,84.31
2023-03-16T00:41:17.407Z,84.45
2023-03-16T00:43:49.113Z,83.92
2023-03-16T00:46:17.660Z,83.64
2023-03-16T00:48:51.514Z,83.73
2023-03-16T00:51:19.757Z,83.76
2023-03-16T00:53:48.232Z,83.72
2023-03-16T00:56:20.395Z,83.26
2023-03-16T00:58:49.616Z,82.95
2023-03-16T01:01:19.851Z,83.11
2023-03-16T01:03:49.980Z,82.91
2023-03-16T01:06:20.791Z,82.60
2023-03-16T01:08:49.452Z,82.35
2023-03-16T01:11:19.074Z,82.03
2023-03-16T01:13:49.237Z,81.93
2023-03-16T01:16:19.195Z,81.97
2023-03-16T01:18:52.524Z,81.64
2023-03-16T01:21:21.905Z,81.68
2023-03-16T01:23:54.060Z,81.47
2023-03-16T01:26:23.343Z,81.30
2023-03-16T01:28:51.751Z,81.55
2023-03-16T01:31:19.890Z,81.52
2023-03-16T01:33:48.612Z,81.50
2023-03-16T01:36:22.169Z,81.41
2023-03-16T01:38:57.141Z,81.09
2023-03-16T01:41:28.022Z,80.94
2023-03-16T01:43:58.807Z,80.77
2023-03-16T01:46:29.726Z,80.89
2023-03-16T01:49:06.649Z,80.53
2023-03-16T01:51:45.408Z,80.48
2023-03-16T01:54:19.244Z,80.58
2023-03-16T01:57:08.105Z,80.46
2023-03-16T01:59:59.766Z,79.97
2023-03-16T02:02:30.153Z,79.89
2023-03-16T02:05:00.242Z,79.98
2023-03-16T02:07:30.597Z,80.18
2023-03-16T02:10:02.670Z,80.37
2023-03-16T02:12:34.955Z,80.33
2023-03-16T02:15:04.969Z,80.24
2023-03-16T02:17:34.383Z,80.14
2023-03-16T02:20:11.851Z,80.03
2023-03-16T02:22:44.524Z,79.89
2023-03-16T02:25:14.130Z,80.16
2023-03-16T02:28:01.060Z,80.35
2023-03-16T02:30:30.064Z,80.28
2023-03-16T02:33:06.200Z,80.31
2023-03-16T02:35:34.467Z,80.49
2023-03-16T02:38:04.120Z,80.19
2023-03-16T02:40:36.157Z,80.34
2023-03-16T02:43:11.335Z,80.35
2023-03-16T02:45:45.033Z,80.55
2023-03-16T02:48:17.488Z,80.86
2023-03-16T02:50:52.025Z,80.55
2023-03-16T02:53:20.814Z,80.49
2023-03-16T02:55:52.135Z,80.28
2023-03-16T02:58:21.283Z,80.58
2023-03-16T03:00:49.625Z,80.88
2023-03-16T03:03:18.942Z,80.64
2023-03-16T03:05:46.981Z,80.76
2023-03-16T03:08:20.581Z,80.61
2023-03-16T03:10:49.860Z,80.53
2023-03-16T03:13:17.934Z,80.79
2023-03-16T03:15:47.229Z,81.16
2023-03-16T03:18:15.363Z,81.28
2023-03-16T03:20:43.617Z,81.78
2023-03-16T03:23:11.770Z,81.96
2023-03-16T03:25:43.426Z,81.73
2023-03-16T03:28:11.950Z,82.22
2023-03-16T03:30:40.500Z,82.45
2023-03-16T03:33:08.795Z,82.38
2023-03-16T03:35:39.001Z,82.25
2023-03-16T03:38:08.576Z,82.27
2023-03-16T03:40:44.033Z,81.93
2023-03-16T03:43:13.755Z,82.00
2023-03-16T03:45:44.600Z,82.31
2023-03-16T03:48:15.975Z,82.28
2023-03-16T03:50:43.973Z,82.36
2023-03-16T03:53:23.225Z,82.26
2023-03-16T03:56:09.270Z,82.43
2023-03-16T03:58:39.270Z,82.25
2023-03-16T04:01:07.378Z,82.07
2023-03-16T04:03:36.790Z,82.10
2023-03-16T04:06:08.166Z,82.25
2023-03-16T04:08:37.211Z,82.43
2023-03-16T04:11:13.776Z,82.50
2023-03-16T04:13:47.270Z,82.42
2023-03-16T04:16:17.244Z,82.30
2023-03-16T04:18:48.439Z,82.04
2023-03-16T04:21:17.424Z,82.22
2023-03-16T04:23:47.846Z,82.26
2023-03-16T04:26:16.187Z,82.20
2023-03-16T04:28:47.606Z,82.19
2023-03-16T04:31:19.838Z,81.83
2023-03-16T04:33:50.787Z,81.54
2023-03-16T04:36:19.240Z,81.75
2023-03-16T04:38:47.380Z,81.77
2023-03-16T04:41:16.456Z,82.25
2023-03-16T04:43:55.554Z,82.28
2023-03-16T04:46:27.307Z,82.02
2023-03-16T04:48:58.444Z,81.56
2023-03-16T04:51:27.005Z,81.84
2023-03-16T04:54:04.726Z,81.68
2023-03-16T04:56:37.338Z,81.67
2023-03-16T04:59:09.852Z,81.46
2023-03-16T05:01:48.617Z,81.56
2023-03-16T05:04:19.567Z,81.55
2023-03-16T05:06:48.443Z,81.69
2023-03-16T05:09:20.775Z,82.27
2023-03-16T05:11:48.880Z,82.20
2023-03-16T05:14:17.838Z,83.00
2023-03-16T05:17:15.296Z,83.07
2023-03-16T05:19:44.074Z,82.76
2023-03-16T05:22:15.979Z,83.14
2023-03-16T05:25:03.535Z,83.28
2023-03-16T05:27:34.452Z,84.10
2023-03-16T05:30:04.223Z,84.11
2023-03-16T05:32:33.193Z,83.96
2023-03-16T05:35:23.067Z,83.95
2023-03-16T05:37:53.459Z,84.11
2023-03-16T05:40:23.275Z,84.02
2023-03-16T05:43:05.958Z,83.99
2023-03-16T05:45:35.918Z,84.14
2023-03-16T05:48:10.732Z,84.37
2023-03-16T05:50:44.961Z,84.18
2023-03-16T05:53:15.520Z,84.24
2023-03-16T05:55:43.778Z,85.01
2023-03-16T05:58:13.685Z,85.27
2023-03-16T06:00:42.543Z,85.62
2023-03-16T06:03:18.523Z,85.72
2023-03-16T06:05:47.400Z,85.60
2023-03-16T06:08:16.541Z,85.37
2023-03-16T06:10:52.708Z,85.89
2023-03-16T06:13:23.517Z,86.18
2023-03-16T06:15:51.756Z,86.10
2023-03-16T06:18:21.614Z,85.96
2023-03-16T06:20:50.257Z,86.07
2023-03-16T06:23:20.449Z,86.10
2023-03-16T06:25:49.153Z,85.75
2023-03-16T06:28:17.597Z,85.71
2023-03-16T06:30:46.943Z,85.16
2023-03-16T06:33:15.371Z,85.02
2023-03-16T06:35:43.382Z,85.04
2023-03-16T06:38:20.347Z,85.17
2023-03-16T06:40:55.343Z,85.51
2023-03-16T06:43:24.503Z,85.28
2023-03-16T06:45:53.453Z,85.58
2023-03-16T06:48:21.822Z,85.49
2023-03-16T06:50:49.859Z,86.13
2023-03-16T06:53:22.257Z,86.40
2023-03-16T06:55:52.718Z,86.40
2023-03-16T06:58:22.387Z,86.11
2023-03-16T07:00:56.048Z,86.12
2023-03-16T07:03:25.102Z,85.99
2023-03-16T07:05:57.641Z,86.17
2023-03-16T07:08:30.628Z,85.96
2023-03-16T07:10:59.680Z,85.60
2023-03-16T07:13:27.780Z,85.47
2023-03-16T07:15:56.158Z,84.71
2023-03-16T07:19:24.085Z,84.53
2023-03-16T07:21:54.018Z,84.46
2023-03-16T07:24:22.890Z,84.23
2023-03-16T07:26:51.148Z,83.83
2023-03-16T07:29:26.281Z,83.40
2023-03-16T07:31:55.047Z,84.02
2023-03-16T07:34:33.934Z,84.36
2023-03-16T07:37:02.227Z,83.97
2023-03-16T07:39:33.094Z,83.52
2023-03-16T07:42:11.022Z,83.19
2023-03-16T07:45:01.872Z,82.95
2023-03-16T07:47:34.087Z,83.28
2023-03-16T07:50:09.091Z,83.20
2023-03-16T07:52:44.132Z,83.11
2023-03-16T07:55:13.535Z,83.05
2023-03-16T07:57:42.687Z,82.76
2023-03-16T08:00:14.348Z,82.36
2023-03-16T08:02:43.633Z,82.14
2023-03-16T08:05:20.831Z,81.90
2023-03-16T08:08:05.109Z,81.30
2023-03-16T08:10:34.509Z,81.36
2023-03-16T08:13:11.692Z,81.43
2023-03-16T08:15:49.545Z,81.43
2023-03-16T08:18:26.790Z,80.90
2023-03-16T08:20:57.741Z,80.43
2023-03-16T08:23:29.440Z,80.60
2023-03-16T08:25:57.985Z,80.74
2023-03-16T08:28:26.836Z,81.07
2023-03-16T08:30:56.135Z,81.15
2023-03-16T08:33:47.544Z,80.84
2023-03-16T08:36:17.118Z,80.94
2023-03-16T08:39:06.215Z,80.82
2023-03-16T08:41:47.201Z,81.12
2023-03-16T08:44:30.379Z,81.13
2023-03-16T08:47:00.170Z,81.06
2023-03-16T08:49:30.189Z,81.03
2023-03-16T08:52:06.159Z,80.82
2023-03-16T08:54:35.702Z,80.79
2023-03-16T08:57:06.189Z,81.31
2023-03-16T08:59:37.170Z,81.37
2023-03-16T09:02:05.309Z,81.48
2023-03-16T09:04:35.356Z,81.44
2023-03-16T09:07:08.919Z,81.26
2023-03-16T09:09:40.317Z,81.70
2023-03-16T09:12:09.247Z,81.65
2023-03-16T09:14:40.036Z,81.58
2023-03-16T09:17:11.834Z,81.47
2023-03-16T09:19:51.674Z,81.53
2023-03-16T09:22:21.704Z,81.45
2023-03-16T09:24:51.293Z,81.33
2023-03-16T09:27:23.007Z,81.15
2023-03-16T09:29:59.556Z,80.90
2023-03-16T09:32:28.514Z,80.74
2023-03-16T09:34:56.995Z,80.69
2023-03-16T09:37:35.348Z,80.21
2023-03-16T09:40:34.063Z,80.22
2023-03-16T09:43:28.150Z,80.17
2023-03-16T09:46:02.352Z,79.97
2023-03-16T09:48:35.702Z,79.76
2023-03-16T09:51:07.852Z,79.33
2023-03-16T09:53:39.762Z,79.25
2023-03-16T09:56:29.271Z,79.35
2023-03-16T09:58:59.151Z,79.36
2023-03-16T10:01:51.350Z,79.11
2023-03-16T10:04:37.842Z,78.88
2023-03-16T10:07:24.798Z,79.12
2023-03-16T10:09:57.171Z,79.10
2023-03-16T10:12:32.477Z,79.05
2023-03-16T10:15:27.532Z,79.04
2023-03-16T10:18:18.082Z,78.98
2023-03-16T10:20:49.291Z,79.06
2023-03-16T10:23:20.879Z,79.24
2023-03-16T10:25:54.222Z,79.43
2023-03-16T10:28:23.918Z,79.45
2023-03-16T10:30:54.984Z,78.90
2023-03-16T10:33:31.825Z,78.92
2023-03-16T10:36:03.433Z,79.04
2023-03-16T10:38:48.250Z,78.73
2023-03-16T10:41:23.101Z,78.76
2023-03-16T10:44:08.402Z,79.11
2023-03-16T10:46:51.369Z,78.99
2023-03-16T10:49:44.515Z,78.72
2023-03-16T10:52:34.642Z,78.57
2023-03-16T10:55:30.999Z,78.58
2023-03-16T10:58:00.049Z,78.40
2023-03-16T11:00:46.770Z,78.25
2023-03-16T11:03:32.706Z,78.12
2023-03-16T11:06:20.934Z,77.89
2023-03-16T11:08:49.635Z,77.65
2023-03-16T11:11:28.111Z,77.49
2023-03-16T11:13:59.940Z,77.53
2023-03-16T11:16:37.284Z,77.71
2023-03-16T11:19:21.873Z,77.75
2023-03-16T11:21:57.185Z,77.87
2023-03-16T11:25:09.613Z,77.67
2023-03-16T11:28:13.552Z,77.47
2023-03-16T11:30:47.626Z,77.68
2023-03-16T11:33:17.214Z,77.93
2023-03-16T11:36:01.365Z,78.06
2023-03-16T11:39:00.547Z,78.12
2023-03-16T11:41:38.138Z,78.00
2023-03-16T11:44:30.766Z,77.61
2023-03-16T11:47:26.136Z,77.85
2023-03-16T11:50:27.509Z,77.60
2023-03-16T11:53:20.535Z,77.08
2023-03-16T11:56:02.245Z,77.29
2023-03-16T11:58:50.104Z,77.55
2023-03-16T12:01:54.375Z,77.59
2023-03-16T12:04:48.581Z,77.39
2023-03-16T12:08:00.576Z,77.80
2023-03-16T12:11:06.109Z,77.78
2023-03-16T12:13:57.001Z,77.91
2023-03-16T12:16:33.124Z,78.22
2023-03-16T12:19:06.787Z,78.24
2023-03-16T12:21:39.516Z,78.24
2023-03-16T12:24:28.725Z,78.62
2023-03-16T12:26:57.470Z,78.84
2023-03-16T12:29:43.829Z,78.80
2023-03-16T12:32:25.985Z,79.00
2023-03-16T12:35:06.994Z,79.37
2023-03-16T12:37:47.793Z,79.38
2023-03-16T12:40:31.519Z,79.47
2023-03-16T12:43:37.118Z,79.93
2023-03-16T12:46:14.223Z,80.05
2023-03-16T12:48:46.634Z,80.44
2023-03-16T12:51:14.680Z,80.50
2023-03-16T12:53:51.883Z,80.32
2023-03-16T12:56:30.420Z,80.18
2023-03-16T12:59:00.396Z,80.32
2023-03-16T13:01:30.727Z,80.96
2023-03-16T13:04:12.993Z,81.17
2023-03-16T13:06:48.457Z,81.25
2023-03-16T13:09:19.811Z,81.15
2023-03-16T13:11:51.725Z,81.12
2023-03-16T13:14:42.743Z,81.29
2023-03-16T13:17:18.506Z,81.10
2023-03-16T13:20:18.228Z,81.22
2023-03-16T13:23:22.307Z,81.27
2023-03-16T13:26:15.884Z,81.25
2023-03-16T13:28:47.122Z,81.01
2023-03-16T13:31:27.724Z,81.24
2023-03-16T13:33:59.946Z,81.27
2023-03-16T13:36:30.176Z,81.68
2023-03-16T13:39:17.545Z,81.59
2023-03-16T13:41:59.944Z,81.61
2023-03-16T13:44:28.600Z,81.78
2023-03-16T13:46:57.098Z,82.42
2023-03-16T13:49:25.304Z,82.75
2023-03-16T13:51:53.982Z,82.74
2023-03-16T13:54:28.126Z,82.41
2023-03-16T13:56:58.251Z,82.29
2023-03-16T13:59:26.655Z,82.47
2023-03-16T14:01:59.839Z,82.81
2023-03-16T14:04:29.919Z,82.93
2023-03-16T14:07:03.806Z,83.23
2023-03-16T14:09:35.813Z,83.20
2023-03-16T14:12:04.403Z,82.92
2023-03-16T14:14:42.016Z,82.58
2023-03-16T14:17:13.753Z,82.97
2023-03-16T14:19:51.040Z,83.04
2023-03-16T14:22:24.098Z,83.22
2023-03-16T14:24:55.028Z,83.39
2023-03-16T14:27:40.052Z,83.57
2023-03-16T14:30:27.017Z,83.96
2023-03-16T14:32:56.905Z,84.24
2023-03-16T14:35:30.540Z,84.46
2023-03-16T14:38:41.102Z,84.37
2023-03-16T14:41:24.114Z,84.44
2023-03-16T14:43:55.772Z,84.65
2023-03-16T14:46:30.855Z,84.65
2023-03-16T14:49:10.491Z,84.69
2023-03-16T14:51:39.234Z,85.04
2023-03-16T14:54:19.153Z,84.63
2023-03-16T14:56:55.736Z,84.31
2023-03-16T14:59:24.474Z,84.83
2023-03-16T15:01:55.423Z,84.51
2023-03-16T15:04:30.341Z,84.61
2023-03-16T15:06:58.773Z,84.56
2023-03-16T15:09:34.943Z,84.36
2023-03-16T15:12:03.310Z,84.38
2023-03-16T15:15:00.767Z,84.74
2023-03-16T15:17:32.680Z,85.30
2023-03-16T15:20:01.440Z,85.22
2023-03-16T15:22:32.605Z,85.36
2023-03-16T15:25:37.467Z,85.23
2023-03-16T15:28:17.667Z,85.42
2023-03-16T15:30:53.870Z,85.04
2023-03-16T15:33:22.963Z,85.36
2023-03-16T15:35:53.015Z,85.52
2023-03-16T15:38:22.992Z,85.70
2023-03-16T15:40:51.447Z,85.79
2023-03-16T15:43:24.676Z,86.26
2023-03-16T15:45:54.289Z,86.55
2023-03-16T15:48:24.733Z,87.09
2023-03-16T15:51:04.891Z,86.81
2023-03-16T15:53:36.132Z,86.96
2023-03-16T15:56:09.858Z,86.84
2023-03-16T15:58:42.714Z,86.86
2023-03-16T16:01:26.814Z,87.23
2023-03-16T16:03:56.213Z,86.83
2023-03-16T16:06:24.493Z,86.74
2023-03-16T16:08:52.870Z,86.67
2023-03-16T16:11:26.183Z,86.85
2023-03-16T16:13:57.938Z,87.15
2023-03-16T16:16:29.960Z,86.93
2023-03-16T16:18:58.401Z,86.18
2023-03-16T16:21:33.937Z,85.80
2023-03-16T16:24:03.300Z,85.68
2023-03-16T16:26:48.566Z,85.86
2023-03-16T16:29:23.998Z,85.90
2023-03-16T16:31:53.110Z,85.50
2023-03-16T16:34:25.836Z,85.50
2023-03-16T16:36:55.307Z,85.53
2023-03-16T16:39:24.786Z,85.72
2023-03-16T16:41:57.233Z,85.63
2023-03-16T16:44:32.126Z,85.50
2023-03-16T16:47:19.272Z,84.67
2023-03-16T16:49:49.137Z,84.28
2023-03-16T16:52:17.690Z,84.27
2023-03-16T16:54:46.379Z,84.81
2023-03-16T16:57:18.596Z,84.75
2023-03-16T16:59:48.083Z,84.94
2023-03-16T17:02:30.098Z,84.70
2023-03-16T17:04:58.934Z,84.35
2023-03-16T17:07:30.082Z,84.14
2023-03-16T17:10:00.117Z,84.34
2023-03-16T17:12:29.850Z,84.31
2023-03-16T17:14:58.237Z,84.00
2023-03-16T17:17:29.227Z,83.89
2023-03-16T17:19:58.296Z,83.40
2023-03-16T17:22:30.396Z,83.36
2023-03-16T17:25:00.609Z,82.70
2023-03-16T17:27:30.515Z,82.75
2023-03-16T17:29:58.659Z,82.95
2023-03-16T17:32:27.410Z,82.65
2023-03-16T17:34:55.921Z,82.27
2023-03-16T17:37:23.956Z,82.28
2023-03-16T17:39:52.487Z,82.47
2023-03-16T17:42:23.016Z,82.22
2023-03-16T17:44:52.419Z,82.05
2023-03-16T17:47:21.684Z,81.91
2023-03-16T17:49:51.548Z,81.54
2023-03-16T17:52:23.481Z,81.77
2023-03-16T17:54:53.634Z,81.53
2023-03-16T17:57:28.544Z,81.75
2023-03-16T17:59:56.875Z,81.74
2023-03-16T18:02:54.612Z,81.89
2023-03-16T18:05:27.215Z,81.92
2023-03-16T18:08:07.315Z,82.02
2023-03-16T18:10:44.953Z,81.78
2023-03-16T18:13:22.816Z,82.02
2023-03-16T18:15:53.028Z,81.91
2023-03-16T18:18:27.313Z,82.06
2023-03-16T18:21:02.028Z,81.79
2023-03-16T18:23:32.032Z,81.66
2023-03-16T18:26:07.285Z,81.95
2023-03-16T18:28:38.095Z,81.80
2023-03-16T18:31:08.092Z,82.29
2023-03-16T18:33:39.823Z,82.64
2023-03-16T18:36:16.389Z,82.53
2023-03-16T18:38:47.423Z,82.51
2023-03-16T18:41:30.087Z,82.88
2023-03-16T18:44:18.999Z,82.89
2023-03-16T18:46:48.526Z,82.97
2023-03-16T18:49:36.308Z,83.34
2023-03-16T18:52:07.627Z,83.32
2023-03-16T18:54:39.101Z,83.13
2023-03-16T18:57:36.356Z,83.29
2023-03-16T19:00:06.683Z,83.43
2023-03-16T19:02:38.119Z,83.65
2023-03-16T19:05:12.774Z,84.04
2023-03-16T19:07:42.806Z,83.55
2023-03-16T19:10:21.252Z,83.63
2023-03-16T19:12:50.692Z,84.02
2023-03-16T19:15:30.968Z,84.18
2023-03-16T19:18:00.020Z,84.58
2023-03-16T19:20:30.673Z,84.84
2023-03-16T19:23:24.469Z,84.52
2023-03-16T19:25:53.526Z,84.47
2023-03-16T19:28:34.313Z,84.96
2023-03-16T19:31:05.345Z,84.86
2023-03-16T19:33:33.856Z,84.73
2023-03-16T19:37:29.406Z,84.78
2023-03-16T19:39:56.368Z,84.75
2023-03-16T19:42:32.896Z,84.91
2023-03-16T19:44:59.635Z,85.10
2023-03-16T19:47:32.819Z,85.31
2023-03-16T19:50:00.358Z,84.89
2023-03-16T19:52:27.683Z,84.70
2023-03-16T19:54:54.215Z,84.65
2023-03-16T19:57:20.914Z,84.85
2023-03-16T19:59:57.088Z,84.82
2023-03-16T20:02:26.597Z,84.94
2023-03-16T20:04:54.158Z,84.87
2023-03-16T20:07:21.233Z,84.70
2023-03-16T20:09:47.876Z,84.96
2023-03-16T20:12:28.267Z,85.21
2023-03-16T20:14:59.099Z,85.38
2023-03-16T20:17:27.874Z,85.14
2023-03-16T20:19:54.987Z,84.84
2023-03-16T20:22:23.897Z,84.94
2023-03-16T20:24:50.864Z,84.92
2023-03-16T20:27:22.242Z,85.08
2023-03-16T20:29:50.028Z,85.02
2023-03-16T20:32:28.117Z,85.14
2023-03-16T20:34:56.018Z,85.02
2023-03-16T20:37:25.955Z,85.19
2023-03-16T20:40:06.347Z,85.44
2023-03-16T20:42:34.498Z,85.78
2023-03-16T20:45:25.406Z,86.02
2023-03-16T20:47:53.149Z,85.98
2023-03-16T20:50:24.504Z,85.49
2023-03-16T20:52:53.069Z,85.47
2023-03-16T20:55:22.650Z,85.78
2023-03-16T20:57:51.361Z,85.79
2023-03-16T21:00:25.896Z,85.99
2023-03-16T21:02:54.106Z,85.70
2023-03-16T21:05:20.702Z,85.63
2023-03-16T21:07:48.338Z,85.66
2023-03-16T21:10:17.608Z,85.81
2023-03-16T21:12:49.149Z,85.61
2023-03-16T21:15:27.472Z,85.49
2023-03-16T21:18:03.465Z,85.14
2023-03-16T21:20:32.050Z,85.56
2023-03-16T21:22:59.147Z,85.85
2023-03-16T21:25:31.206Z,86.00
2023-03-16T21:28:01.021Z,86.22
2023-03-16T21:30:33.383Z,85.58
2023-03-16T21:33:01.249Z,85.49
2023-03-16T21:35:35.990Z,85.54
2023-03-16T21:38:15.766Z,85.52
2023-03-16T21:40:43.573Z,85.22
2023-03-16T21:43:13.868Z,85.27
2023-03-16T21:45:41.211Z,85.08
2023-03-16T21:48:38.438Z,85.04
2023-03-16T21:51:14.166Z,85.18
2023-03-16T21:53:40.925Z,85.32
2023-03-16T21:56:12.438Z,85.09
2023-03-16T21:58:40.013Z,84.91
2023-03-16T22:01:15.965Z,84.47
2023-03-16T22:03:50.941Z,84.34
2023-03-16T22:06:19.471Z,83.97
2023-03-16T22:08:46.493Z,84.22
2023-03-16T22:11:18.380Z,84.35
2023-03-16T22:13:45.831Z,84.33
2023-03-16T22:16:17.362Z,84.09
2023-03-16T22:18:46.511Z,83.96
2023-03-16T22:21:36.002Z,84.19
2023-03-16T22:24:13.606Z,84.65
2023-03-16T22:26:41.718Z,84.32
2023-03-16T22:29:28.645Z,84.16
2023-03-16T22:32:02.390Z,84.27
2023-03-16T22:34:36.925Z,84.14
2023-03-16T22:37:04.068Z,84.26
2023-03-16T22:39:32.942Z,84.08
2023-03-16T22:42:03.627Z,83.92
2023-03-16T22:44:30.844Z,83.88
2023-03-16T22:46:57.601Z,83.77
2023-03-16T22:49:29.777Z,84.20
2023-03-16T22:51:57.392Z,84.16
2023-03-16T22:54:28.928Z,84.16
2023-03-16T22:56:55.898Z,84.11
2023-03-16T22:59:22.603Z,83.82
2023-03-16T23:01:49.433Z,83.68
2023-03-16T23:04:16.519Z,83.23
2023-03-16T23:06:49.147Z,83.44
2023-03-16T23:09:16.399Z,83.70
2023-03-16T23:11:47.582Z,83.61
2023-03-16T23:14:20.962Z,83.91
2023-03-16T23:16:48.043Z,83.72
2023-03-16T23:19:26.092Z,83.30
2023-03-16T23:21:57.300Z,83.14
2023-03-16T23:24:24.706Z,83.23
2023-03-16T23:26:52.495Z,83.16
2023-03-16T23:29:20.447Z,83.07
2023-03-16T23:31:49.147Z,82.93
2023-03-16T23:34:17.990Z,82.34
2023-03-16T23:36:47.589Z,82.38
2023-03-16T23:39:14.668Z,82.59
2023-03-16T23:41:43.490Z,82.96
2023-03-16T23:44:21.711Z,82.91
2023-03-16T23:46:49.033Z,82.64
2023-03-16T23:49:24.099Z,82.40
2023-03-16T23:51:51.428Z,82.06
2023-03-16T23:54:23.467Z,81.92
2023-03-16T23:56:50.992Z,81.99
2023-03-16T23:59:18.604Z,81.96
